sensor_id;sensor_type;location;lat;lon;timestamp;pressure;altitude;pressure_sealevel;temperature;humidity
46464;BME280;32161;48.148;-1.554;2023-03-23T00:02:28;99856.31;;;13.15;96.95
46464;BME280;32161;48.148;-1.554;2023-03-23T00:04:59;99857.66;;;13.18;97.04
46464;BME280;32161;48.148;-1.554;2023-03-23T00:07:28;99856.00;;;13.02;96.94
46464;BME280;32161;48.148;-1.554;2023-03-23T00:09:56;99861.97;;;12.99;97.73
46464;BME280;32161;48.148;-1.554;2023-03-23T00:12:26;99854.88;;;13.03;97.61
46464;BME280;32161;48.148;-1.554;2023-03-23T00:14:59;99854.34;;;13.06;97.30
46464;BME280;32161;48.148;-1.554;2023-03-23T00:17:28;99838.56;;;13.18;96.32
46464;BME280;32161;48.148;-1.554;2023-03-23T00:19:56;99849.72;;;13.01;97.13
46464;BME280;32161;48.148;-1.554;2023-03-23T00:22:23;99836.38;;;13.10;96.83
46464;BME280;32161;48.148;-1.554;2023-03-23T00:24:52;99840.19;;;13.09;96.48
46464;BME280;32161;48.148;-1.554;2023-03-23T00:27:21;99850.56;;;13.07;96.51
46464;BME280;32161;48.148;-1.554;2023-03-23T00:29:49;99849.38;;;12.77;98.20
46464;BME280;32161;48.148;-1.554;2023-03-23T00:32:20;99862.44;;;12.75;97.97
46464;BME280;32161;48.148;-1.554;2023-03-23T00:34:54;99866.31;;;12.94;97.91
46464;BME280;32161;48.148;-1.554;2023-03-23T00:37:22;99855.75;;;13.08;96.33
46464;BME280;32161;48.148;-1.554;2023-03-23T00:39:52;99856.56;;;13.09;96.58
46464;BME280;32161;48.148;-1.554;2023-03-23T00:42:24;99860.91;;;13.05;95.97
46464;BME280;32161;48.148;-1.554;2023-03-23T00:44:52;99849.72;;;12.96;96.63
46464;BME280;32161;48.148;-1.554;2023-03-23T00:47:26;99852.44;;;13.06;96.15
46464;BME280;32161;48.148;-1.554;2023-03-23T00:49:54;99854.84;;;12.82;97.78
46464;BME280;32161;48.148;-1.554;2023-03-23T00:52:23;99838.22;;;12.84;97.24
46464;BME280;32161;48.148;-1.554;2023-03-23T00:54:52;99835.25;;;12.95;96.35
46464;BME280;32161;48.148;-1.554;2023-03-23T00:57:19;99837.41;;;12.99;95.58
46464;BME280;32161;48.148;-1.554;2023-03-23T00:59:50;99841.78;;;12.89;96.49
46464;BME280;32161;48.148;-1.554;2023-03-23T01:02:18;99847.50;;;12.93;96.36
46464;BME280;32161;48.148;-1.554;2023-03-23T01:04:46;99853.81;;;13.04;95.37
46464;BME280;32161;48.148;-1.554;2023-03-23T01:07:18;99852.69;;;12.89;96.64
46464;BME280;32161;48.148;-1.554;2023-03-23T01:09:46;99857.88;;;12.96;95.33
46464;BME280;32161;48.148;-1.554;2023-03-23T01:12:15;99846.44;;;12.99;95.71
46464;BME280;32161;48.148;-1.554;2023-03-23T01:14:43;99858.13;;;12.89;96.78
46464;BME280;32161;48.148;-1.554;2023-03-23T01:17:11;99852.72;;;13.05;95.89
46464;BME280;32161;48.148;-1.554;2023-03-23T01:19:39;99855.19;;;13.06;95.35
46464;BME280;32161;48.148;-1.554;2023-03-23T01:22:08;99854.34;;;13.06;96.15
46464;BME280;32161;48.148;-1.554;2023-03-23T01:24:36;99854.34;;;13.01;96.13
46464;BME280;32161;48.148;-1.554;2023-03-23T01:27:03;99846.72;;;13.03;95.03
46464;BME280;32161;48.148;-1.554;2023-03-23T01:29:34;99848.91;;;12.95;94.52
46464;BME280;32161;48.148;-1.554;2023-03-23T01:32:02;99850.28;;;13.08;93.32
46464;BME280;32161;48.148;-1.554;2023-03-23T01:34:30;99838.22;;;12.94;93.17
46464;BME280;32161;48.148;-1.554;2023-03-23T01:36:57;99842.88;;;12.93;92.91
46464;BME280;32161;48.148;-1.554;2023-03-23T01:39:25;99840.16;;;12.93;92.68
46464;BME280;32161;48.148;-1.554;2023-03-23T01:41:52;99834.06;;;12.71;93.61
46464;BME280;32161;48.148;-1.554;2023-03-23T01:48:00;99842.53;;;12.80;92.83
46464;BME280;32161;48.148;-1.554;2023-03-23T01:50:33;99843.94;;;12.87;91.72
46464;BME280;32161;48.148;-1.554;2023-03-23T01:53:06;99848.19;;;12.58;93.79
46464;BME280;32161;48.148;-1.554;2023-03-23T01:55:36;99837.53;;;12.51;94.56
46464;BME280;32161;48.148;-1.554;2023-03-23T01:58:06;99844.44;;;12.74;92.84
46464;BME280;32161;48.148;-1.554;2023-03-23T02:00:35;99835.13;;;12.65;93.34
46464;BME280;32161;48.148;-1.554;2023-03-23T02:03:08;99837.28;;;12.63;92.81
46464;BME280;32161;48.148;-1.554;2023-03-23T02:05:38;99826.44;;;12.73;92.64
46464;BME280;32161;48.148;-1.554;2023-03-23T02:08:08;99821.00;;;12.73;91.85
46464;BME280;32161;48.148;-1.554;2023-03-23T02:10:37;99830.78;;;12.69;92.08
46464;BME280;32161;48.148;-1.554;2023-03-23T02:13:08;99834.56;;;12.58;92.66
46464;BME280;32161;48.148;-1.554;2023-03-23T02:15:48;99834.50;;;12.53;93.35
46464;BME280;32161;48.148;-1.554;2023-03-23T02:18:48;99837.06;;;12.75;92.12
46464;BME280;32161;48.148;-1.554;2023-03-23T02:25:09;99832.97;;;12.72;92.05
46464;BME280;32161;48.148;-1.554;2023-03-23T02:28:09;99829.94;;;12.63;92.28
46464;BME280;32161;48.148;-1.554;2023-03-23T02:31:05;99841.16;;;12.72;92.84
46464;BME280;32161;48.148;-1.554;2023-03-23T02:33:41;99843.88;;;12.72;92.98
46464;BME280;32161;48.148;-1.554;2023-03-23T02:36:19;99839.38;;;12.40;95.05
46464;BME280;32161;48.148;-1.554;2023-03-23T02:38:57;99841.34;;;12.55;94.26
46464;BME280;32161;48.148;-1.554;2023-03-23T02:41:32;99825.06;;;12.65;94.33
46464;BME280;32161;48.148;-1.554;2023-03-23T02:44:04;99831.78;;;12.53;94.47
46464;BME280;32161;48.148;-1.554;2023-03-23T02:46:32;99837.78;;;12.50;94.68
46464;BME280;32161;48.148;-1.554;2023-03-23T02:49:07;99830.75;;;12.59;94.28
46464;BME280;32161;48.148;-1.554;2023-03-23T02:51:37;99840.47;;;12.44;94.57
46464;BME280;32161;48.148;-1.554;2023-03-23T02:54:06;99830.75;;;12.59;93.60
46464;BME280;32161;48.148;-1.554;2023-03-23T02:56:35;99844.31;;;12.49;94.70
46464;BME280;32161;48.148;-1.554;2023-03-23T02:59:03;99847.38;;;12.62;93.75
46464;BME280;32161;48.148;-1.554;2023-03-23T03:01:52;99837.59;;;12.66;93.95
46464;BME280;32161;48.148;-1.554;2023-03-23T03:04:24;99838.41;;;12.67;94.71
46464;BME280;32161;48.148;-1.554;2023-03-23T03:07:19;99829.94;;;12.58;97.15
46464;BME280;32161;48.148;-1.554;2023-03-23T03:09:55;99836.34;;;12.37;98.26
46464;BME280;32161;48.148;-1.554;2023-03-23T03:12:33;99836.09;;;12.38;98.90
46464;BME280;32161;48.148;-1.554;2023-03-23T03:15:14;99828.53;;;12.51;98.49
46464;BME280;32161;48.148;-1.554;2023-03-23T03:17:48;99822.63;;;12.16;99.74
46464;BME280;32161;48.148;-1.554;2023-03-23T03:20:22;99829.09;;;12.10;100.00
46464;BME280;32161;48.148;-1.554;2023-03-23T03:22:53;99825.66;;;12.25;100.00
46464;BME280;32161;48.148;-1.554;2023-03-23T03:25:21;99823.28;;;12.39;99.83
46464;BME280;32161;48.148;-1.554;2023-03-23T03:27:49;99825.94;;;12.29;99.72
46464;BME280;32161;48.148;-1.554;2023-03-23T03:30:23;99811.41;;;12.13;100.00
46464;BME280;32161;48.148;-1.554;2023-03-23T03:32:53;99815.25;;;12.17;100.00
46464;BME280;32161;48.148;-1.554;2023-03-23T03:35:23;99819.69;;;12.28;100.00
46464;BME280;32161;48.148;-1.554;2023-03-23T03:37:52;99817.16;;;12.16;100.00
46464;BME280;32161;48.148;-1.554;2023-03-23T03:40:22;99818.28;;;12.20;99.78
46464;BME280;32161;48.148;-1.554;2023-03-23T03:42:50;99811.81;;;12.37;99.86
46464;BME280;32161;48.148;-1.554;2023-03-23T03:45:19;99808.28;;;12.36;99.64
46464;BME280;32161;48.148;-1.554;2023-03-23T03:47:47;99811.56;;;12.38;99.72
46464;BME280;32161;48.148;-1.554;2023-03-23T03:50:15;99812.50;;;12.12;100.00
46464;BME280;32161;48.148;-1.554;2023-03-23T03:52:44;99819.91;;;12.21;100.00
46464;BME280;32161;48.148;-1.554;2023-03-23T03:55:11;99827.56;;;12.25;100.00
46464;BME280;32161;48.148;-1.554;2023-03-23T03:57:39;99824.53;;;12.21;100.00
46464;BME280;32161;48.148;-1.554;2023-03-23T04:00:09;99819.19;;;12.36;100.00
46464;BME280;32161;48.148;-1.554;2023-03-23T04:02:42;99830.88;;;12.27;100.00
46464;BME280;32161;48.148;-1.554;2023-03-23T04:05:13;99827.34;;;12.31;100.00
46464;BME280;32161;48.148;-1.554;2023-03-23T04:07:42;99823.88;;;12.46;100.00
46464;BME280;32161;48.148;-1.554;2023-03-23T04:10:12;99829.06;;;12.48;100.00
46464;BME280;32161;48.148;-1.554;2023-03-23T04:12:40;99820.34;;;12.51;100.00
46464;BME280;32161;48.148;-1.554;2023-03-23T04:15:09;99824.19;;;12.55;100.00
46464;BME280;32161;48.148;-1.554;2023-03-23T04:17:36;99825.78;;;12.45;100.00
46464;BME280;32161;48.148;-1.554;2023-03-23T04:20:08;99830.69;;;12.49;100.00
46464;BME280;32161;48.148;-1.554;2023-03-23T04:22:42;99837.78;;;12.50;100.00
46464;BME280;32161;48.148;-1.554;2023-03-23T04:25:12;99833.91;;;12.40;100.00
46464;BME280;32161;48.148;-1.554;2023-03-23T04:27:40;99839.94;;;12.48;100.00
46464;BME280;32161;48.148;-1.554;2023-03-23T04:30:13;99832.38;;;12.60;100.00
46464;BME280;32161;48.148;-1.554;2023-03-23T04:32:41;99841.66;;;12.59;100.00
46464;BME280;32161;48.148;-1.554;2023-03-23T04:35:12;99823.06;;;12.51;100.00
46464;BME280;32161;48.148;-1.554;2023-03-23T04:37:40;99833.09;;;12.40;100.00
46464;BME280;32161;48.148;-1.554;2023-03-23T04:40:12;99842.09;;;12.40;100.00
46464;BME280;32161;48.148;-1.554;2023-03-23T04:42:42;99832.63;;;12.53;100.00
46464;BME280;32161;48.148;-1.554;2023-03-23T04:45:14;99829.47;;;12.77;100.00
46464;BME280;32161;48.148;-1.554;2023-03-23T04:47:42;99836.19;;;12.59;100.00
46464;BME280;32161;48.148;-1.554;2023-03-23T04:50:20;99840.63;;;12.75;100.00
46464;BME280;32161;48.148;-1.554;2023-03-23T04:52:50;99853.06;;;12.56;100.00
46464;BME280;32161;48.148;-1.554;2023-03-23T04:55:21;99837.09;;;12.80;100.00
46464;BME280;32161;48.148;-1.554;2023-03-23T04:57:49;99844.66;;;12.62;100.00
46464;BME280;32161;48.148;-1.554;2023-03-23T05:00:18;99834.28;;;12.54;100.00
46464;BME280;32161;48.148;-1.554;2023-03-23T05:02:47;99847.09;;;12.59;100.00
46464;BME280;32161;48.148;-1.554;2023-03-23T05:05:19;99844.72;;;12.78;100.00
46464;BME280;32161;48.148;-1.554;2023-03-23T05:07:47;99846.41;;;12.84;100.00
46464;BME280;32161;48.148;-1.554;2023-03-23T05:10:16;99843.09;;;12.77;100.00
46464;BME280;32161;48.148;-1.554;2023-03-23T05:12:45;99856.31;;;12.53;100.00
46464;BME280;32161;48.148;-1.554;2023-03-23T05:15:15;99852.28;;;12.60;100.00
46464;BME280;32161;48.148;-1.554;2023-03-23T05:17:43;99853.38;;;12.64;100.00
46464;BME280;32161;48.148;-1.554;2023-03-23T05:20:13;99857.41;;;12.52;100.00
46464;BME280;32161;48.148;-1.554;2023-03-23T05:22:44;99859.84;;;12.48;100.00
46464;BME280;32161;48.148;-1.554;2023-03-23T05:25:14;99864.56;;;12.63;100.00
46464;BME280;32161;48.148;-1.554;2023-03-23T05:27:41;99852.91;;;12.78;100.00
46464;BME280;32161;48.148;-1.554;2023-03-23T05:30:15;99864.53;;;12.58;100.00
46464;BME280;32161;48.148;-1.554;2023-03-23T05:32:43;99846.59;;;12.72;100.00
46464;BME280;32161;48.148;-1.554;2023-03-23T05:35:12;99856.97;;;12.70;100.00
46464;BME280;32161;48.148;-1.554;2023-03-23T05:37:39;99852.25;;;12.55;100.00
46464;BME280;32161;48.148;-1.554;2023-03-23T05:40:08;99853.94;;;12.66;100.00
46464;BME280;32161;48.148;-1.554;2023-03-23T05:42:38;99855.91;;;12.76;100.00
46464;BME280;32161;48.148;-1.554;2023-03-23T05:45:09;99847.19;;;12.79;100.00
46464;BME280;32161;48.148;-1.554;2023-03-23T05:47:40;99859.63;;;12.55;100.00
46464;BME280;32161;48.148;-1.554;2023-03-23T05:50:10;99859.63;;;12.55;100.00
46464;BME280;32161;48.148;-1.554;2023-03-23T05:52:39;99849.88;;;12.74;100.00
46464;BME280;32161;48.148;-1.554;2023-03-23T05:55:08;99855.34;;;12.69;100.00
46464;BME280;32161;48.148;-1.554;2023-03-23T05:57:36;99857.25;;;12.68;99.96
46464;BME280;32161;48.148;-1.554;2023-03-23T06:00:06;99855.25;;;12.54;100.00
46464;BME280;32161;48.148;-1.554;2023-03-23T06:02:47;99864.56;;;12.63;100.00
46464;BME280;32161;48.148;-1.554;2023-03-23T06:05:15;99880.19;;;12.78;100.00
46464;BME280;32161;48.148;-1.554;2023-03-23T06:07:43;99867.88;;;12.75;100.00
46464;BME280;32161;48.148;-1.554;2023-03-23T06:10:11;99875.06;;;12.97;98.95
46464;BME280;32161;48.148;-1.554;2023-03-23T06:12:40;99868.22;;;12.89;98.66
46464;BME280;32161;48.148;-1.554;2023-03-23T06:15:09;99873.84;;;12.62;100.00
46464;BME280;32161;48.148;-1.554;2023-03-23T06:17:37;99872.44;;;12.54;100.00
46464;BME280;32161;48.148;-1.554;2023-03-23T06:20:07;99883.94;;;12.66;99.71
46464;BME280;32161;48.148;-1.554;2023-03-23T06:22:36;99884.53;;;12.74;99.71
46464;BME280;32161;48.148;-1.554;2023-03-23T06:25:07;99888.66;;;12.81;98.57
46464;BME280;32161;48.148;-1.554;2023-03-23T06:27:35;99908.00;;;12.80;98.31
46464;BME280;32161;48.148;-1.554;2023-03-23T06:30:04;99917.56;;;12.82;97.94
46464;BME280;32161;48.148;-1.554;2023-03-23T06:32:33;99905.00;;;12.76;98.25
46464;BME280;32161;48.148;-1.554;2023-03-23T06:35:01;99908.78;;;12.70;98.68
46464;BME280;32161;48.148;-1.554;2023-03-23T06:37:31;99906.94;;;12.86;98.20
46464;BME280;32161;48.148;-1.554;2023-03-23T06:39:59;99901.72;;;12.79;98.45
46464;BME280;32161;48.148;-1.554;2023-03-23T06:42:26;99906.88;;;12.76;99.02
46464;BME280;32161;48.148;-1.554;2023-03-23T06:44:54;99917.53;;;12.77;99.19
46464;BME280;32161;48.148;-1.554;2023-03-23T06:47:23;99913.72;;;12.83;99.05
46464;BME280;32161;48.148;-1.554;2023-03-23T06:49:51;99913.78;;;12.88;99.14
46464;BME280;32161;48.148;-1.554;2023-03-23T06:52:18;99924.94;;;12.87;99.91
46464;BME280;32161;48.148;-1.554;2023-03-23T06:54:48;99932.66;;;13.00;98.98
46464;BME280;32161;48.148;-1.554;2023-03-23T06:57:16;99924.19;;;13.02;98.11
46464;BME280;32161;48.148;-1.554;2023-03-23T06:59:44;99926.31;;;12.89;99.52
46464;BME280;32161;48.148;-1.554;2023-03-23T07:02:13;99932.09;;;12.98;99.32
46464;BME280;32161;48.148;-1.554;2023-03-23T07:04:41;99922.00;;;12.99;99.49
46464;BME280;32161;48.148;-1.554;2023-03-23T07:07:10;99929.06;;;12.94;99.81
46464;BME280;32161;48.148;-1.554;2023-03-23T07:09:40;99933.94;;;12.87;100.00
46464;BME280;32161;48.148;-1.554;2023-03-23T07:12:10;99933.78;;;13.09;99.49
46464;BME280;32161;48.148;-1.554;2023-03-23T07:14:37;99918.16;;;12.94;100.00
46464;BME280;32161;48.148;-1.554;2023-03-23T07:17:05;99917.91;;;12.96;100.00
46464;BME280;32161;48.148;-1.554;2023-03-23T07:19:33;99918.78;;;13.07;100.00
46464;BME280;32161;48.148;-1.554;2023-03-23T07:22:04;99917.47;;;13.25;98.94
46464;BME280;32161;48.148;-1.554;2023-03-23T07:24:31;99918.50;;;13.13;99.76
46464;BME280;32161;48.148;-1.554;2023-03-23T07:26:59;99923.16;;;13.18;99.70
46464;BME280;32161;48.148;-1.554;2023-03-23T07:29:29;99913.84;;;13.04;100.00
46464;BME280;32161;48.148;-1.554;2023-03-23T07:31:57;99907.13;;;13.32;99.40
46464;BME280;32161;48.148;-1.554;2023-03-23T07:34:24;99898.88;;;13.22;99.70
46464;BME280;32161;48.148;-1.554;2023-03-23T07:36:52;99902.78;;;13.36;98.79
46464;BME280;32161;48.148;-1.554;2023-03-23T07:39:20;99906.56;;;13.30;99.68
46464;BME280;32161;48.148;-1.554;2023-03-23T07:41:49;99909.34;;;13.35;98.94
46464;BME280;32161;48.148;-1.554;2023-03-23T07:44:17;99911.28;;;13.60;97.48
46464;BME280;32161;48.148;-1.554;2023-03-23T07:46:46;99900.91;;;13.52;97.89
46464;BME280;32161;48.148;-1.554;2023-03-23T07:49:14;99900.34;;;13.44;98.53
46464;BME280;32161;48.148;-1.554;2023-03-23T07:51:43;99903.63;;;13.52;98.25
46464;BME280;32161;48.148;-1.554;2023-03-23T07:54:11;99914.25;;;13.48;97.77
46464;BME280;32161;48.148;-1.554;2023-03-23T07:56:38;99916.47;;;13.56;97.30
46464;BME280;32161;48.148;-1.554;2023-03-23T07:59:07;99919.22;;;13.61;95.83
46464;BME280;32161;48.148;-1.554;2023-03-23T08:01:36;99917.56;;;13.60;95.88
46464;BME280;32161;48.148;-1.554;2023-03-23T08:04:06;99914.56;;;13.52;96.05
46464;BME280;32161;48.148;-1.554;2023-03-23T08:06:34;99901.47;;;13.59;96.03
46464;BME280;32161;48.148;-1.554;2023-03-23T08:09:03;99904.22;;;13.69;96.11
46464;BME280;32161;48.148;-1.554;2023-03-23T08:11:33;99903.38;;;13.63;96.12
46464;BME280;32161;48.148;-1.554;2023-03-23T08:14:01;99908.84;;;13.79;95.31
46464;BME280;32161;48.148;-1.554;2023-03-23T08:16:29;99922.78;;;13.77;95.13
46464;BME280;32161;48.148;-1.554;2023-03-23T08:18:57;99927.72;;;13.85;95.24
46464;BME280;32161;48.148;-1.554;2023-03-23T08:21:25;99924.44;;;13.93;94.49
46464;BME280;32161;48.148;-1.554;2023-03-23T08:23:53;99924.44;;;13.73;95.89
46464;BME280;32161;48.148;-1.554;2023-03-23T08:26:21;99927.38;;;13.56;97.07
46464;BME280;32161;48.148;-1.554;2023-03-23T08:28:48;99922.22;;;13.60;97.15
46464;BME280;32161;48.148;-1.554;2023-03-23T08:31:16;99920.59;;;13.79;96.19
46464;BME280;32161;48.148;-1.554;2023-03-23T08:33:44;99925.53;;;13.92;95.83
46464;BME280;32161;48.148;-1.554;2023-03-23T08:36:12;99928.25;;;13.98;96.55
46464;BME280;32161;48.148;-1.554;2023-03-23T08:38:41;99906.97;;;14.00;96.33
46464;BME280;32161;48.148;-1.554;2023-03-23T08:41:10;99906.38;;;13.87;95.24
46464;BME280;32161;48.148;-1.554;2023-03-23T08:43:38;99902.59;;;13.93;95.90
46464;BME280;32161;48.148;-1.554;2023-03-23T08:46:06;99920.06;;;13.98;95.63
46464;BME280;32161;48.148;-1.554;2023-03-23T08:48:36;99937.00;;;14.10;94.66
46464;BME280;32161;48.148;-1.554;2023-03-23T08:51:05;99932.34;;;14.21;93.50
46464;BME280;32161;48.148;-1.554;2023-03-23T08:53:34;99933.75;;;14.23;93.52
46464;BME280;32161;48.148;-1.554;2023-03-23T08:56:06;99940.56;;;14.10;93.81
46464;BME280;32161;48.148;-1.554;2023-03-23T08:58:34;99945.19;;;14.25;93.93
46464;BME280;32161;48.148;-1.554;2023-03-23T09:01:02;99945.75;;;14.27;93.06
46464;BME280;32161;48.148;-1.554;2023-03-23T09:03:31;99944.66;;;14.18;93.01
46464;BME280;32161;48.148;-1.554;2023-03-23T09:06:00;99934.00;;;13.96;93.74
46464;BME280;32161;48.148;-1.554;2023-03-23T09:08:29;99937.81;;;14.21;93.00
46464;BME280;32161;48.148;-1.554;2023-03-23T09:10:59;99926.63;;;14.17;92.93
46464;BME280;32161;48.148;-1.554;2023-03-23T09:13:28;99946.03;;;14.00;93.33
46464;BME280;32161;48.148;-1.554;2023-03-23T09:15:56;99947.94;;;14.00;93.90
46464;BME280;32161;48.148;-1.554;2023-03-23T09:18:24;99942.19;;;13.86;94.17
46464;BME280;32161;48.148;-1.554;2023-03-23T09:20:53;99944.91;;;13.76;94.33
46464;BME280;32161;48.148;-1.554;2023-03-23T09:23:21;99943.81;;;13.77;94.48
46464;BME280;32161;48.148;-1.554;2023-03-23T09:25:50;99942.75;;;13.88;93.89
46464;BME280;32161;48.148;-1.554;2023-03-23T09:28:18;99941.94;;;13.92;93.82
46464;BME280;32161;48.148;-1.554;2023-03-23T09:30:48;99935.66;;;14.12;92.23
46464;BME280;32161;48.148;-1.554;2023-03-23T09:33:17;99944.09;;;13.90;92.70
46464;BME280;32161;48.148;-1.554;2023-03-23T09:35:45;99938.66;;;14.06;93.40
46464;BME280;32161;48.148;-1.554;2023-03-23T09:38:13;99948.19;;;13.98;93.23
46464;BME280;32161;48.148;-1.554;2023-03-23T09:40:46;99949.03;;;13.88;94.59
46464;BME280;32161;48.148;-1.554;2023-03-23T09:43:53;99950.66;;;13.95;94.89
46464;BME280;32161;48.148;-1.554;2023-03-23T09:46:44;99950.97;;;14.03;94.79
46464;BME280;32161;48.148;-1.554;2023-03-23T09:49:21;99945.50;;;14.03;94.40
46464;BME280;32161;48.148;-1.554;2023-03-23T09:51:53;99936.75;;;13.96;94.46
46464;BME280;32161;48.148;-1.554;2023-03-23T09:54:26;99937.28;;;13.93;94.94
46464;BME280;32161;48.148;-1.554;2023-03-23T09:56:58;99918.44;;;14.07;94.87
46464;BME280;32161;48.148;-1.554;2023-03-23T09:59:31;99917.88;;;14.10;95.09
46464;BME280;32161;48.148;-1.554;2023-03-23T10:02:18;99919.81;;;14.14;96.48
46464;BME280;32161;48.148;-1.554;2023-03-23T10:04:51;99921.69;;;14.39;94.01
46464;BME280;32161;48.148;-1.554;2023-03-23T10:07:23;99913.47;;;14.39;94.39
46464;BME280;32161;48.148;-1.554;2023-03-23T10:09:54;99903.94;;;14.27;94.35
46464;BME280;32161;48.148;-1.554;2023-03-23T10:12:31;99901.19;;;14.22;94.53
46464;BME280;32161;48.148;-1.554;2023-03-23T10:15:13;99910.22;;;14.37;92.29
46464;BME280;32161;48.148;-1.554;2023-03-23T10:17:50;99905.84;;;14.41;92.42
46464;BME280;32161;48.148;-1.554;2023-03-23T10:20:29;99912.94;;;14.53;91.88
46464;BME280;32161;48.148;-1.554;2023-03-23T10:23:09;99923.31;;;14.66;89.63
46464;BME280;32161;48.148;-1.554;2023-03-23T10:25:45;99936.97;;;14.76;88.99
46464;BME280;32161;48.148;-1.554;2023-03-23T10:28:20;99940.53;;;14.67;88.28
46464;BME280;32161;48.148;-1.554;2023-03-23T10:30:53;99946.81;;;14.77;87.25
46464;BME280;32161;48.148;-1.554;2023-03-23T10:33:29;99945.16;;;14.81;86.32
46464;BME280;32161;48.148;-1.554;2023-03-23T10:36:05;99941.81;;;14.95;87.76
46464;BME280;32161;48.148;-1.554;2023-03-23T10:38:37;99944.03;;;14.82;88.13
46464;BME280;32161;48.148;-1.554;2023-03-23T10:41:11;99938.00;;;14.96;88.66
46464;BME280;32161;48.148;-1.554;2023-03-23T10:43:39;99947.28;;;14.95;87.63
46464;BME280;32161;48.148;-1.554;2023-03-23T10:46:20;99958.75;;;15.02;86.95
46464;BME280;32161;48.148;-1.554;2023-03-23T10:48:52;99953.84;;;14.99;87.05
46464;BME280;32161;48.148;-1.554;2023-03-23T10:51:25;99941.75;;;15.10;86.62
46464;BME280;32161;48.148;-1.554;2023-03-23T10:53:58;99937.94;;;15.06;86.04
46464;BME280;32161;48.148;-1.554;2023-03-23T10:56:29;99938.94;;;15.25;85.20
46464;BME280;32161;48.148;-1.554;2023-03-23T10:59:13;99936.25;;;15.20;85.36
46464;BME280;32161;48.148;-1.554;2023-03-23T11:01:44;99941.81;;;15.00;87.05
46464;BME280;32161;48.148;-1.554;2023-03-23T11:04:17;99936.41;;;14.84;87.86
46464;BME280;32161;48.148;-1.554;2023-03-23T11:06:48;99939.63;;;14.97;87.55
46464;BME280;32161;48.148;-1.554;2023-03-23T11:09:18;99938.56;;;14.87;88.74
46464;BME280;32161;48.148;-1.554;2023-03-23T11:11:51;99924.84;;;14.98;88.80
46464;BME280;32161;48.148;-1.554;2023-03-23T11:14:30;99914.50;;;14.84;89.40
46464;BME280;32161;48.148;-1.554;2023-03-23T11:17:01;99929.00;;;14.85;88.74
46464;BME280;32161;48.148;-1.554;2023-03-23T11:19:33;99924.91;;;14.82;88.25
46464;BME280;32161;48.148;-1.554;2023-03-23T11:22:08;99928.19;;;14.79;88.82
46464;BME280;32161;48.148;-1.554;2023-03-23T11:24:45;99922.69;;;14.89;88.01
46464;BME280;32161;48.148;-1.554;2023-03-23T11:27:15;99922.41;;;14.86;88.34
46464;BME280;32161;48.148;-1.554;2023-03-23T11:29:49;99919.38;;;15.03;88.00
46464;BME280;32161;48.148;-1.554;2023-03-23T11:32:23;99930.09;;;14.84;90.04
46464;BME280;32161;48.148;-1.554;2023-03-23T11:34:57;99907.88;;;15.01;90.11
46464;BME280;32161;48.148;-1.554;2023-03-23T11:37:32;99908.00;;;15.30;87.26
46464;BME280;32161;48.148;-1.554;2023-03-23T11:40:02;99904.69;;;15.33;85.80
46464;BME280;32161;48.148;-1.554;2023-03-23T11:42:37;99900.69;;;15.15;86.10
46464;BME280;32161;48.148;-1.554;2023-03-23T11:45:19;99894.41;;;15.14;86.06
46464;BME280;32161;48.148;-1.554;2023-03-23T11:48:00;99898.25;;;15.08;86.68
46464;BME280;32161;48.148;-1.554;2023-03-23T11:50:44;99882.66;;;15.09;86.20
46464;BME280;32161;48.148;-1.554;2023-03-23T11:53:22;99890.66;;;14.95;86.85
46464;BME280;32161;48.148;-1.554;2023-03-23T11:56:06;99887.94;;;14.95;86.81
46464;BME280;32161;48.148;-1.554;2023-03-23T11:58:35;99887.16;;;14.74;87.58
46464;BME280;32161;48.148;-1.554;2023-03-23T12:01:11;99892.06;;;14.87;87.05
46464;BME280;32161;48.148;-1.554;2023-03-23T12:04:01;99881.66;;;14.79;87.98
46464;BME280;32161;48.148;-1.554;2023-03-23T12:06:43;99875.38;;;14.84;86.76
46464;BME280;32161;48.148;-1.554;2023-03-23T12:09:29;99879.97;;;14.94;86.31
46464;BME280;32161;48.148;-1.554;2023-03-23T12:12:13;99875.69;;;14.72;88.49
46464;BME280;32161;48.148;-1.554;2023-03-23T12:14:54;99885.19;;;14.95;88.09
46464;BME280;32161;48.148;-1.554;2023-03-23T12:17:35;99875.06;;;14.96;88.99
46464;BME280;32161;48.148;-1.554;2023-03-23T12:20:19;99876.31;;;15.13;87.68
46464;BME280;32161;48.148;-1.554;2023-03-23T12:23:07;99875.72;;;15.27;87.27
46464;BME280;32161;48.148;-1.554;2023-03-23T12:26:15;99871.16;;;15.12;88.11
46464;BME280;32161;48.148;-1.554;2023-03-23T12:29:01;99868.88;;;15.24;88.24
46464;BME280;32161;48.148;-1.554;2023-03-23T12:31:39;99868.81;;;15.34;88.03
46464;BME280;32161;48.148;-1.554;2023-03-23T12:34:19;99867.41;;;15.42;87.91
46464;BME280;32161;48.148;-1.554;2023-03-23T12:37:19;99871.34;;;15.70;85.64
46464;BME280;32161;48.148;-1.554;2023-03-23T12:40:07;99865.53;;;15.77;86.28
46464;BME280;32161;48.148;-1.554;2023-03-23T12:42:56;99864.72;;;15.76;85.29
46464;BME280;32161;48.148;-1.554;2023-03-23T12:45:50;99856.03;;;15.69;85.04
46464;BME280;32161;48.148;-1.554;2023-03-23T12:48:24;99844.56;;;15.96;82.74
46464;BME280;32161;48.148;-1.554;2023-03-23T12:51:18;99843.28;;;15.83;83.37
46464;BME280;32161;48.148;-1.554;2023-03-23T12:53:55;99855.41;;;15.77;84.80
46464;BME280;32161;48.148;-1.554;2023-03-23T12:56:31;99836.41;;;15.86;83.94
46464;BME280;32161;48.148;-1.554;2023-03-23T12:59:11;99830.53;;;16.03;83.52
46464;BME280;32161;48.148;-1.554;2023-03-23T13:01:44;99840.25;;;16.14;83.75
46464;BME280;32161;48.148;-1.554;2023-03-23T13:04:17;99832.56;;;16.16;82.67
46464;BME280;32161;48.148;-1.554;2023-03-23T13:06:48;99834.75;;;16.19;81.08
46464;BME280;32161;48.148;-1.554;2023-03-23T13:09:24;99836.38;;;16.20;81.42
46464;BME280;32161;48.148;-1.554;2023-03-23T13:11:57;99827.97;;;16.35;80.46
46464;BME280;32161;48.148;-1.554;2023-03-23T13:14:40;99824.13;;;16.36;80.42
46464;BME280;32161;48.148;-1.554;2023-03-23T13:17:24;99823.72;;;16.24;80.88
46464;BME280;32161;48.148;-1.554;2023-03-23T13:20:34;99812.31;;;16.12;81.93
46464;BME280;32161;48.148;-1.554;2023-03-23T13:23:11;99817.63;;;16.03;82.44